Aviation Digital Data Service (ADDS)

Output produced by METARs form (0847 UTC 18 April 2015)
found at http://aviationweather.gov/adds/metars/
 
KEWN 180529Z 1806/1906 VRB03KT P6SM SCT050 BKN100 
     FM180900 03005KT 5SM BR VCSH BKN025 
     FM181500 08006KT P6SM VCSH BKN040 
     FM190000 VRB03KT P6SM BKN040